Kezdőlap
METAR-TAF:

METAR-TAF

Repülőterek :

Chandler Regional Airport

Chandler, Oklahoma, Amerikai Egyesült Államok

földrajzi szélesség: 35-43-26N, földrajzi hosszúság: 096-49-13W, magasság: 300 m

Jelenlegi meteorológiai megfigyelések

A jelentés 30 perccel ezelõtt készült, 11:15 UTC
Keleti szél 4 kt
Hőmérséklet 22°C
Páratartalom 94%
Légköri nyomás 1023 hPa
Látótávolság: 11.3 km
Borult 11000 lábon

METAR: KCQB 201115Z AUTO 09004KT 7SM OVC110 22/21 A3021 RMK AO2 T02200210

Idő: 06:45 (11:45 UTC)


TAF: hiányzik

Meteorológiai megfigyelések és előrejelzések több, mint 4000 repülőtéren (METAR és TAF jelentéseket).

A térképen piros és sárga pontok jelzik az elérhető meteorológiai állomásokat.

Mozgassa az egeret a pont fölött, hogy megjelenjen az állomás neve.

Azután kattintson az időjárási megfigyelések és előrejelzések megtekintéséhez.

A térkép megváltoztatása: kattintson a fekete keresztel jelölt zöld gombra ráközelítéshez, a vonallal jelölt zöld gombra távolításhoz, vagy a zöld nyilakra a szomszédos térképek eléréséhez.


METAR-TAF: